Portada
METAR-TAF:

METAR-TAF

Aeroports :

Aeroport de Lugano

Lugano, Suïssa

latitud: 46-00N, longitud: 008-58E, altitud: 273 m

Observació

L'informe es va fer fa 29 minuts, a les 14:20 UTC
Vent 8 kt del Sud
Temperatura 28°C
Humitat 45%
Pressió 1014 hPa
Visibilitat 10 km o més
Escasses núvols a una alçada de 8000 ft

METAR: LSZA 161420Z 19008KT 9999 FEW080 28/15 Q1014 NOSIG

Hora: 16:49 (14:49 UTC)

Pronòstic

L'informe es va fer fa 24 minuts, a les 14:25 UTC
Pronòstic vàlid del 16 a les 15 UTC al 16 a les 24 UTC
Vent 10 kt del Sud
Visibilitat 10 km o més
Escasses núvols a una alçada de 8000 ft
Evolucionant progressivament
l' 16 a les 15 UTC al 16 a les 17 UTC
Vent 3 kt amb direcció variable
Visibilitat 10 km o més
sense núvols per sota de 1500 mi sense presència de cumulonimbus.

TAF: LSZA 161425Z 1615/1624 19010KT 9999 FEW080 BECMG 1615/1617 VRB03KT CAVOK

Observacions i pronòstics meteorològics de més de 4000 aeroports (METAR i TAF).

Les estacions disponibles són els punts grocs i vermells al mapa.

Posi el ratolí al punt desitjat per veure el nom de l'estació.

Feu clic per veure les observacions i els pronòstics meteorològics.

Per canviar el mapa: feu clic els botons verds amb una creu de color negre per apropar; al botó verd amb un guió per allunyar la imatge; o en les fletxes verdes per a mapes adjacents.


METAR-TAF: